sensor_id;sensor_type;location;lat;lon;timestamp;pressure;altitude;pressure_sealevel;temperature;humidity
70011;BME280;59543;37.950;-122.338;2023-10-31T00:01:05;76465.53;;;-145.45;23.38
70011;BME280;59543;37.950;-122.338;2023-10-31T00:03:32;76477.84;;;-145.45;23.27
70011;BME280;59543;37.950;-122.338;2023-10-31T00:05:58;76488.13;;;-145.45;23.91
70011;BME280;59543;37.950;-122.338;2023-10-31T00:08:24;76502.50;;;-145.45;23.93
70011;BME280;59543;37.950;-122.338;2023-10-31T00:10:50;76510.72;;;-145.45;23.88
70011;BME280;59543;37.950;-122.338;2023-10-31T00:13:17;76512.75;;;-145.45;24.21
70011;BME280;59543;37.950;-122.338;2023-10-31T00:15:43;76525.09;;;-145.45;24.29
70011;BME280;59543;37.950;-122.338;2023-10-31T00:18:09;76527.13;;;-145.45;24.28
70011;BME280;59543;37.950;-122.338;2023-10-31T00:20:36;76549.72;;;-145.45;24.38
70011;BME280;59543;37.950;-122.338;2023-10-31T00:23:02;76539.47;;;-145.45;24.47
70011;BME280;59543;37.950;-122.338;2023-10-31T00:25:28;76525.09;;;-145.45;23.65
70011;BME280;59543;37.950;-122.338;2023-10-31T00:27:54;76555.91;;;-145.45;24.13
70011;BME280;59543;37.950;-122.338;2023-10-31T00:30:21;76580.53;;;-145.45;24.19
70011;BME280;59543;37.950;-122.338;2023-10-31T00:32:47;76570.28;;;-145.45;23.65
70011;BME280;59543;37.950;-122.338;2023-10-31T00:35:13;76557.94;;;-145.45;23.71
70011;BME280;59543;37.950;-122.338;2023-10-31T00:37:40;76582.59;;;-145.45;23.86
70011;BME280;59543;37.950;-122.338;2023-10-31T00:40:09;76588.75;;;-145.45;24.06
70011;BME280;59543;37.950;-122.338;2023-10-31T00:42:38;76601.09;;;-145.45;24.01
70011;BME280;59543;37.950;-122.338;2023-10-31T00:45:06;76592.88;;;-145.45;24.07
70011;BME280;59543;37.950;-122.338;2023-10-31T00:47:33;76611.34;;;-145.45;24.06
70011;BME280;59543;37.950;-122.338;2023-10-31T00:49:59;76640.09;;;-145.45;24.48
70011;BME280;59543;37.950;-122.338;2023-10-31T00:52:25;76648.31;;;-145.45;24.74
70011;BME280;59543;37.950;-122.338;2023-10-31T00:54:52;76666.81;;;-145.45;24.84
70011;BME280;59543;37.950;-122.338;2023-10-31T00:57:18;76677.06;;;-145.45;24.86
70011;BME280;59543;37.950;-122.338;2023-10-31T00:59:44;76685.28;;;-145.45;25.26
70011;BME280;59543;37.950;-122.338;2023-10-31T01:02:11;76699.66;;;-145.45;25.22
70011;BME280;59543;37.950;-122.338;2023-10-31T01:04:37;76724.31;;;-145.45;25.39
70011;BME280;59543;37.950;-122.338;2023-10-31T01:07:04;76722.28;;;-145.45;25.56
70011;BME280;59543;37.950;-122.338;2023-10-31T01:09:30;76714.06;;;-145.45;25.49
70011;BME280;59543;37.950;-122.338;2023-10-31T01:11:56;76738.69;;;-145.45;25.93
70011;BME280;59543;37.950;-122.338;2023-10-31T01:14:23;76769.50;;;-145.45;26.31
70011;BME280;59543;37.950;-122.338;2023-10-31T01:16:49;76785.94;;;-145.45;26.50
70011;BME280;59543;37.950;-122.338;2023-10-31T01:19:15;76792.09;;;-145.45;26.44
70011;BME280;59543;37.950;-122.338;2023-10-31T01:21:41;76798.25;;;-145.45;26.59
70011;BME280;59543;37.950;-122.338;2023-10-31T01:24:08;76796.22;;;-145.45;26.90
70011;BME280;59543;37.950;-122.338;2023-10-31T01:26:34;76806.47;;;-145.45;27.07
70011;BME280;59543;37.950;-122.338;2023-10-31T01:29:01;76810.59;;;-145.45;26.94
70011;BME280;59543;37.950;-122.338;2023-10-31T01:31:28;76837.28;;;-145.45;26.98
70011;BME280;59543;37.950;-122.338;2023-10-31T01:33:54;76851.66;;;-145.45;27.19
70011;BME280;59543;37.950;-122.338;2023-10-31T01:36:25;76872.22;;;-145.45;27.34
70011;BME280;59543;37.950;-122.338;2023-10-31T01:38:52;76884.53;;;-145.45;27.48
70011;BME280;59543;37.950;-122.338;2023-10-31T01:41:19;76874.25;;;-145.45;27.46
70011;BME280;59543;37.950;-122.338;2023-10-31T01:43:45;76888.66;;;-145.45;27.60
70011;BME280;59543;37.950;-122.338;2023-10-31T01:46:12;76905.06;;;-145.45;27.92
70011;BME280;59543;37.950;-122.338;2023-10-31T01:48:38;76937.94;;;-145.45;28.37
70011;BME280;59543;37.950;-122.338;2023-10-31T01:51:04;76948.22;;;-145.45;28.50
70011;BME280;59543;37.950;-122.338;2023-10-31T01:53:32;76987.25;;;-145.45;29.17
70011;BME280;59543;37.950;-122.338;2023-10-31T01:56:00;76974.91;;;-145.45;29.21
70011;BME280;59543;37.950;-122.338;2023-10-31T01:58:36;77013.94;;;-145.45;29.32
70011;BME280;59543;37.950;-122.338;2023-10-31T02:01:04;77007.78;;;-145.45;29.59
70011;BME280;59543;37.950;-122.338;2023-10-31T02:03:32;77052.97;;;-145.45;30.01
70011;BME280;59543;37.950;-122.338;2023-10-31T02:05:59;77083.78;;;-145.45;30.03
70011;BME280;59543;37.950;-122.338;2023-10-31T02:08:25;77098.16;;;-145.45;30.81
70011;BME280;59543;37.950;-122.338;2023-10-31T02:10:52;77124.88;;;-145.45;30.72
70011;BME280;59543;37.950;-122.338;2023-10-31T02:13:18;77126.94;;;-145.45;31.22
70011;BME280;59543;37.950;-122.338;2023-10-31T02:15:45;77155.69;;;-145.45;31.26
70011;BME280;59543;37.950;-122.338;2023-10-31T02:18:12;77155.69;;;-145.45;30.74
70011;BME280;59543;37.950;-122.338;2023-10-31T02:20:38;77155.69;;;-145.45;31.08
70011;BME280;59543;37.950;-122.338;2023-10-31T02:23:05;77186.50;;;-145.45;31.33
70011;BME280;59543;37.950;-122.338;2023-10-31T02:25:32;77192.66;;;-145.45;31.81
70011;BME280;59543;37.950;-122.338;2023-10-31T02:27:58;77227.59;;;-145.45;31.98
70011;BME280;59543;37.950;-122.338;2023-10-31T02:30:25;77207.03;;;-145.45;32.34
70011;BME280;59543;37.950;-122.338;2023-10-31T02:32:51;77262.50;;;-145.45;32.63
70011;BME280;59543;37.950;-122.338;2023-10-31T02:35:18;77281.00;;;-145.45;32.77
70011;BME280;59543;37.950;-122.338;2023-10-31T02:37:48;77297.44;;;-145.45;33.15
70011;BME280;59543;37.950;-122.338;2023-10-31T02:40:15;77258.41;;;-145.45;33.12
70011;BME280;59543;37.950;-122.338;2023-10-31T02:42:41;77268.66;;;-145.45;33.41
70011;BME280;59543;37.950;-122.338;2023-10-31T02:45:08;77281.00;;;-145.45;33.55
70011;BME280;59543;37.950;-122.338;2023-10-31T02:47:34;77293.31;;;-145.45;33.84
70011;BME280;59543;37.950;-122.338;2023-10-31T02:50:00;77307.69;;;-145.45;34.24
70011;BME280;59543;37.950;-122.338;2023-10-31T02:52:26;77330.31;;;-145.45;34.69
70011;BME280;59543;37.950;-122.338;2023-10-31T02:54:53;77367.28;;;-145.45;35.32
70011;BME280;59543;37.950;-122.338;2023-10-31T02:57:19;77377.56;;;-145.45;35.53
70011;BME280;59543;37.950;-122.338;2023-10-31T02:59:45;77383.72;;;-145.45;35.78
70011;BME280;59543;37.950;-122.338;2023-10-31T03:02:12;77381.66;;;-145.45;35.43
70011;BME280;59543;37.950;-122.338;2023-10-31T03:04:38;77387.81;;;-145.45;35.48
70011;BME280;59543;37.950;-122.338;2023-10-31T03:07:04;77385.78;;;-145.45;35.65
70011;BME280;59543;37.950;-122.338;2023-10-31T03:09:31;77418.63;;;-145.45;35.95
70011;BME280;59543;37.950;-122.338;2023-10-31T03:11:57;77449.47;;;-145.45;36.26
70011;BME280;59543;37.950;-122.338;2023-10-31T03:14:24;77474.09;;;-145.45;36.50
70011;BME280;59543;37.950;-122.338;2023-10-31T03:16:51;77472.06;;;-145.45;36.33
70011;BME280;59543;37.950;-122.338;2023-10-31T03:19:17;77488.50;;;-145.45;36.62
70011;BME280;59543;37.950;-122.338;2023-10-31T03:21:43;77480.28;;;-145.45;36.67
70011;BME280;59543;37.950;-122.338;2023-10-31T03:24:09;77467.94;;;-145.45;36.50
70011;BME280;59543;37.950;-122.338;2023-10-31T03:26:36;77470.00;;;-145.45;36.48
70011;BME280;59543;37.950;-122.338;2023-10-31T03:29:02;77455.63;;;-145.45;36.41
70011;BME280;59543;37.950;-122.338;2023-10-31T03:31:28;77445.34;;;-145.45;36.18
70011;BME280;59543;37.950;-122.338;2023-10-31T03:33:54;77435.06;;;-145.45;36.15
70011;BME280;59543;37.950;-122.338;2023-10-31T03:36:21;77424.81;;;-145.45;36.18
70011;BME280;59543;37.950;-122.338;2023-10-31T03:38:47;77433.03;;;-145.45;36.32
70011;BME280;59543;37.950;-122.338;2023-10-31T03:41:13;77478.22;;;-145.45;36.84
70011;BME280;59543;37.950;-122.338;2023-10-31T03:43:40;77502.88;;;-145.45;36.96
70011;BME280;59543;37.950;-122.338;2023-10-31T03:46:06;77511.09;;;-145.45;37.36
70011;BME280;59543;37.950;-122.338;2023-10-31T03:48:32;77523.41;;;-145.45;37.74
70011;BME280;59543;37.950;-122.338;2023-10-31T03:50:58;77525.47;;;-145.45;38.11
70011;BME280;59543;37.950;-122.338;2023-10-31T03:53:25;77529.56;;;-145.45;38.55
70011;BME280;59543;37.950;-122.338;2023-10-31T03:55:51;77525.47;;;-145.45;38.79
70011;BME280;59543;37.950;-122.338;2023-10-31T03:58:17;77554.22;;;-145.45;39.30
70011;BME280;59543;37.950;-122.338;2023-10-31T04:00:43;77574.78;;;-145.45;39.23
70011;BME280;59543;37.950;-122.338;2023-10-31T04:03:10;77597.38;;;-145.45;39.45
70011;BME280;59543;37.950;-122.338;2023-10-31T04:05:36;77613.81;;;-145.45;39.89
70011;BME280;59543;37.950;-122.338;2023-10-31T04:08:03;77626.13;;;-145.45;39.90
70011;BME280;59543;37.950;-122.338;2023-10-31T04:10:29;77644.63;;;-145.45;40.16
70011;BME280;59543;37.950;-122.338;2023-10-31T04:12:55;77648.72;;;-145.45;40.21
70011;BME280;59543;37.950;-122.338;2023-10-31T04:15:22;77654.91;;;-145.45;40.02
70011;BME280;59543;37.950;-122.338;2023-10-31T04:17:48;77667.22;;;-145.45;40.10
70011;BME280;59543;37.950;-122.338;2023-10-31T04:20:14;77675.44;;;-145.45;39.87
70011;BME280;59543;37.950;-122.338;2023-10-31T04:22:40;77652.84;;;-145.45;39.50
70011;BME280;59543;37.950;-122.338;2023-10-31T04:25:07;77648.72;;;-145.45;39.39
70011;BME280;59543;37.950;-122.338;2023-10-31T04:27:33;77665.16;;;-145.45;39.77
70011;BME280;59543;37.950;-122.338;2023-10-31T04:29:59;77646.69;;;-145.45;40.03
70011;BME280;59543;37.950;-122.338;2023-10-31T04:32:26;77628.19;;;-145.45;39.66
70011;BME280;59543;37.950;-122.338;2023-10-31T04:34:52;77634.34;;;-145.45;39.83
70011;BME280;59543;37.950;-122.338;2023-10-31T04:37:18;77673.38;;;-145.45;40.36
70011;BME280;59543;37.950;-122.338;2023-10-31T04:39:44;77700.09;;;-145.45;40.42
70011;BME280;59543;37.950;-122.338;2023-10-31T04:42:10;77730.91;;;-145.45;40.92
70011;BME280;59543;37.950;-122.338;2023-10-31T04:44:37;77739.13;;;-145.45;41.16
70011;BME280;59543;37.950;-122.338;2023-10-31T04:47:03;77757.63;;;-145.45;41.41
70011;BME280;59543;37.950;-122.338;2023-10-31T04:49:29;77778.16;;;-145.45;41.63
70011;BME280;59543;37.950;-122.338;2023-10-31T04:51:56;77811.03;;;-145.45;42.31
70011;BME280;59543;37.950;-122.338;2023-10-31T04:54:22;77819.25;;;-145.45;42.46
70011;BME280;59543;37.950;-122.338;2023-10-31T04:56:49;77835.69;;;-145.45;42.47
70011;BME280;59543;37.950;-122.338;2023-10-31T04:59:15;77835.69;;;-145.45;42.21
70011;BME280;59543;37.950;-122.338;2023-10-31T05:01:41;77835.69;;;-145.45;42.08
70011;BME280;59543;37.950;-122.338;2023-10-31T05:04:13;77833.66;;;-145.45;42.00
70011;BME280;59543;37.950;-122.338;2023-10-31T05:06:39;77823.38;;;-145.45;41.76
70011;BME280;59543;37.950;-122.338;2023-10-31T05:09:06;77839.81;;;-145.45;42.16
70011;BME280;59543;37.950;-122.338;2023-10-31T05:11:32;77845.97;;;-145.45;42.38
70011;BME280;59543;37.950;-122.338;2023-10-31T05:13:58;77854.19;;;-145.45;42.59
70011;BME280;59543;37.950;-122.338;2023-10-31T05:16:25;77835.69;;;-145.45;42.44
70011;BME280;59543;37.950;-122.338;2023-10-31T05:18:51;77829.53;;;-145.45;42.70
70011;BME280;59543;37.950;-122.338;2023-10-31T05:21:20;77845.97;;;-145.45;42.80
70011;BME280;59543;37.950;-122.338;2023-10-31T05:23:47;77862.41;;;-145.45;43.40
70011;BME280;59543;37.950;-122.338;2023-10-31T05:26:13;77880.91;;;-145.45;43.73
70011;BME280;59543;37.950;-122.338;2023-10-31T05:28:39;77887.06;;;-145.45;43.90
70011;BME280;59543;37.950;-122.338;2023-10-31T05:31:05;77889.13;;;-145.45;43.79
70011;BME280;59543;37.950;-122.338;2023-10-31T05:33:31;77895.28;;;-145.45;43.79
70011;BME280;59543;37.950;-122.338;2023-10-31T05:35:58;77901.44;;;-145.45;44.07
70011;BME280;59543;37.950;-122.338;2023-10-31T05:38:24;77893.22;;;-145.45;44.10
70011;BME280;59543;37.950;-122.338;2023-10-31T05:40:50;77893.22;;;-145.45;43.88
70011;BME280;59543;37.950;-122.338;2023-10-31T05:43:16;77899.38;;;-145.45;44.22
70011;BME280;59543;37.950;-122.338;2023-10-31T05:45:43;77924.03;;;-145.45;44.44
70011;BME280;59543;37.950;-122.338;2023-10-31T05:48:09;77934.31;;;-145.45;44.44
70011;BME280;59543;37.950;-122.338;2023-10-31T05:50:35;77938.44;;;-145.45;44.58
70011;BME280;59543;37.950;-122.338;2023-10-31T05:53:01;77950.75;;;-145.45;44.70
70011;BME280;59543;37.950;-122.338;2023-10-31T05:55:28;77958.97;;;-145.45;44.89
70011;BME280;59543;37.950;-122.338;2023-10-31T05:57:54;77967.19;;;-145.45;45.11
70011;BME280;59543;37.950;-122.338;2023-10-31T06:00:20;77979.53;;;-145.45;45.38
70011;BME280;59543;37.950;-122.338;2023-10-31T06:02:46;77991.84;;;-145.45;45.55
70011;BME280;59543;37.950;-122.338;2023-10-31T06:05:13;77991.84;;;-145.45;45.39
70011;BME280;59543;37.950;-122.338;2023-10-31T06:07:39;78002.13;;;-145.45;45.31
70011;BME280;59543;37.950;-122.338;2023-10-31T06:10:06;78024.72;;;-145.45;45.53
70011;BME280;59543;37.950;-122.338;2023-10-31T06:12:32;78037.06;;;-145.45;45.95
70011;BME280;59543;37.950;-122.338;2023-10-31T06:14:58;78053.50;;;-145.45;46.06
70011;BME280;59543;37.950;-122.338;2023-10-31T06:17:24;78053.50;;;-145.45;45.84
70011;BME280;59543;37.950;-122.338;2023-10-31T06:19:52;78071.97;;;-145.45;46.08
70011;BME280;59543;37.950;-122.338;2023-10-31T06:22:18;78080.19;;;-145.45;46.22
70011;BME280;59543;37.950;-122.338;2023-10-31T06:24:44;78090.47;;;-145.45;46.36
70011;BME280;59543;37.950;-122.338;2023-10-31T06:27:10;78063.75;;;-145.45;46.33
70011;BME280;59543;37.950;-122.338;2023-10-31T06:29:37;78059.66;;;-145.45;45.69
70011;BME280;59543;37.950;-122.338;2023-10-31T06:32:03;78047.31;;;-145.45;45.48
70011;BME280;59543;37.950;-122.338;2023-10-31T06:34:30;78037.06;;;-145.45;45.39
70011;BME280;59543;37.950;-122.338;2023-10-31T06:36:56;78045.28;;;-145.45;45.08
70011;BME280;59543;37.950;-122.338;2023-10-31T06:39:22;78020.63;;;-145.45;44.89
70011;BME280;59543;37.950;-122.338;2023-10-31T06:41:48;78024.72;;;-145.45;44.91
70011;BME280;59543;37.950;-122.338;2023-10-31T06:44:15;78051.44;;;-145.45;45.14
70011;BME280;59543;37.950;-122.338;2023-10-31T06:46:41;78039.09;;;-145.45;44.78
70011;BME280;59543;37.950;-122.338;2023-10-31T06:49:07;78090.47;;;-145.45;45.49
70011;BME280;59543;37.950;-122.338;2023-10-31T06:51:33;78113.06;;;-145.45;46.09
70011;BME280;59543;37.950;-122.338;2023-10-31T06:54:00;78121.28;;;-145.45;46.32
70011;BME280;59543;37.950;-122.338;2023-10-31T06:56:26;78123.34;;;-145.45;46.58
70011;BME280;59543;37.950;-122.338;2023-10-31T06:58:54;78131.56;;;-145.45;46.74
70011;BME280;59543;37.950;-122.338;2023-10-31T07:01:20;78145.94;;;-145.45;47.28
70011;BME280;59543;37.950;-122.338;2023-10-31T07:03:47;78170.59;;;-145.45;47.35
70011;BME280;59543;37.950;-122.338;2023-10-31T07:06:13;78180.88;;;-145.45;47.60
70011;BME280;59543;37.950;-122.338;2023-10-31T07:08:40;78195.28;;;-145.45;47.95
70011;BME280;59543;37.950;-122.338;2023-10-31T07:11:06;78201.44;;;-145.45;48.06
70011;BME280;59543;37.950;-122.338;2023-10-31T07:13:32;78205.53;;;-145.45;47.89
70011;BME280;59543;37.950;-122.338;2023-10-31T07:15:58;78209.66;;;-145.45;47.59
70011;BME280;59543;37.950;-122.338;2023-10-31T07:18:24;78213.75;;;-145.45;47.88
70011;BME280;59543;37.950;-122.338;2023-10-31T07:20:51;78217.88;;;-145.45;47.84
70011;BME280;59543;37.950;-122.338;2023-10-31T07:23:17;78221.97;;;-145.45;46.94
70011;BME280;59543;37.950;-122.338;2023-10-31T07:25:43;78226.09;;;-145.45;45.98
70011;BME280;59543;37.950;-122.338;2023-10-31T07:28:09;78230.19;;;-145.45;45.31
70011;BME280;59543;37.950;-122.338;2023-10-31T07:30:36;78228.16;;;-145.45;45.03
70011;BME280;59543;37.950;-122.338;2023-10-31T07:33:02;78224.03;;;-145.45;45.38
70011;BME280;59543;37.950;-122.338;2023-10-31T07:35:29;78228.16;;;-145.45;45.56
70011;BME280;59543;37.950;-122.338;2023-10-31T07:37:55;78234.31;;;-145.45;46.07
70011;BME280;59543;37.950;-122.338;2023-10-31T07:40:21;78224.03;;;-145.45;46.02
70011;BME280;59543;37.950;-122.338;2023-10-31T07:42:47;78230.19;;;-145.45;46.28
70011;BME280;59543;37.950;-122.338;2023-10-31T07:45:14;78250.75;;;-145.45;46.61
70011;BME280;59543;37.950;-122.338;2023-10-31T07:47:40;78252.81;;;-145.45;47.19
70011;BME280;59543;37.950;-122.338;2023-10-31T07:50:06;78244.59;;;-145.45;47.17
70011;BME280;59543;37.950;-122.338;2023-10-31T07:52:33;78250.75;;;-145.45;47.31
70011;BME280;59543;37.950;-122.338;2023-10-31T07:54:59;78265.13;;;-145.45;47.39
70011;BME280;59543;37.950;-122.338;2023-10-31T07:57:25;78236.38;;;-145.45;47.10
70011;BME280;59543;37.950;-122.338;2023-10-31T07:59:52;78258.97;;;-145.45;47.29
70011;BME280;59543;37.950;-122.338;2023-10-31T08:02:18;78267.19;;;-145.45;47.39
70011;BME280;59543;37.950;-122.338;2023-10-31T08:04:44;78250.75;;;-145.45;47.65
70011;BME280;59543;37.950;-122.338;2023-10-31T08:07:10;78258.97;;;-145.45;47.70
70011;BME280;59543;37.950;-122.338;2023-10-31T08:09:37;78287.72;;;-145.45;48.14
70011;BME280;59543;37.950;-122.338;2023-10-31T08:12:03;78293.91;;;-145.45;48.21
70011;BME280;59543;37.950;-122.338;2023-10-31T08:14:29;78265.13;;;-145.45;48.18
70011;BME280;59543;37.950;-122.338;2023-10-31T08:16:55;78304.16;;;-145.45;48.37
70011;BME280;59543;37.950;-122.338;2023-10-31T08:19:22;78302.13;;;-145.45;48.39
70011;BME280;59543;37.950;-122.338;2023-10-31T08:21:48;78304.16;;;-145.45;48.35
70011;BME280;59543;37.950;-122.338;2023-10-31T08:24:15;78306.22;;;-145.45;48.37
70011;BME280;59543;37.950;-122.338;2023-10-31T08:26:41;78320.59;;;-145.45;48.63
70011;BME280;59543;37.950;-122.338;2023-10-31T08:29:07;78322.66;;;-145.45;48.64
70011;BME280;59543;37.950;-122.338;2023-10-31T08:31:33;78289.78;;;-145.45;48.55
70011;BME280;59543;37.950;-122.338;2023-10-31T08:33:59;78283.63;;;-145.45;48.32
70011;BME280;59543;37.950;-122.338;2023-10-31T08:36:25;78291.84;;;-145.45;48.19
70011;BME280;59543;37.950;-122.338;2023-10-31T08:38:52;78291.84;;;-145.45;48.47
70011;BME280;59543;37.950;-122.338;2023-10-31T08:41:18;78304.16;;;-145.45;48.56
70011;BME280;59543;37.950;-122.338;2023-10-31T08:43:46;78287.72;;;-145.45;48.13
70011;BME280;59543;37.950;-122.338;2023-10-31T08:46:13;78269.25;;;-145.45;47.60
70011;BME280;59543;37.950;-122.338;2023-10-31T08:48:39;78279.50;;;-145.45;47.61
70011;BME280;59543;37.950;-122.338;2023-10-31T08:51:05;78279.50;;;-145.45;47.83
70011;BME280;59543;37.950;-122.338;2023-10-31T08:53:32;78279.50;;;-145.45;47.86
70011;BME280;59543;37.950;-122.338;2023-10-31T08:55:58;78283.63;;;-145.45;47.81
70011;BME280;59543;37.950;-122.338;2023-10-31T08:58:24;78308.28;;;-145.45;48.02
70011;BME280;59543;37.950;-122.338;2023-10-31T09:00:50;78330.88;;;-145.45;48.27
70011;BME280;59543;37.950;-122.338;2023-10-31T09:03:17;78341.16;;;-145.45;48.69
70011;BME280;59543;37.950;-122.338;2023-10-31T09:05:43;78345.25;;;-145.45;48.83
70011;BME280;59543;37.950;-122.338;2023-10-31T09:08:09;78367.88;;;-145.45;48.94
70011;BME280;59543;37.950;-122.338;2023-10-31T09:10:36;78330.88;;;-145.45;49.09
70011;BME280;59543;37.950;-122.338;2023-10-31T09:13:08;78322.66;;;-145.45;49.37
70011;BME280;59543;37.950;-122.338;2023-10-31T09:15:35;78271.28;;;-145.45;48.82
70011;BME280;59543;37.950;-122.338;2023-10-31T09:18:01;78236.38;;;-145.45;47.95
70011;BME280;59543;37.950;-122.338;2023-10-31T09:20:28;78246.63;;;-145.45;47.79
70011;BME280;59543;37.950;-122.338;2023-10-31T09:22:55;78254.84;;;-145.45;47.71
70011;BME280;59543;37.950;-122.338;2023-10-31T09:25:22;78281.56;;;-145.45;47.98
70011;BME280;59543;37.950;-122.338;2023-10-31T09:27:48;78281.56;;;-145.45;48.22
70011;BME280;59543;37.950;-122.338;2023-10-31T09:30:14;78289.78;;;-145.45;48.29
70011;BME280;59543;37.950;-122.338;2023-10-31T09:32:40;78291.84;;;-145.45;48.26
70011;BME280;59543;37.950;-122.338;2023-10-31T09:35:07;78322.66;;;-145.45;49.03
70011;BME280;59543;37.950;-122.338;2023-10-31T09:37:34;78300.06;;;-145.45;48.58
70011;BME280;59543;37.950;-122.338;2023-10-31T09:40:00;78271.28;;;-145.45;47.90
70011;BME280;59543;37.950;-122.338;2023-10-31T09:42:26;78252.81;;;-145.45;47.73
70011;BME280;59543;37.950;-122.338;2023-10-31T09:44:52;78256.91;;;-145.45;47.78
70011;BME280;59543;37.950;-122.338;2023-10-31T09:47:20;78289.78;;;-145.45;47.82
70011;BME280;59543;37.950;-122.338;2023-10-31T09:49:47;78287.72;;;-145.45;48.38
70011;BME280;59543;37.950;-122.338;2023-10-31T09:52:13;78291.84;;;-145.45;49.05
70011;BME280;59543;37.950;-122.338;2023-10-31T09:54:41;78302.13;;;-145.45;49.39
70011;BME280;59543;37.950;-122.338;2023-10-31T09:57:08;78295.94;;;-145.45;49.77
70011;BME280;59543;37.950;-122.338;2023-10-31T09:59:35;78279.50;;;-145.45;49.85
70011;BME280;59543;37.950;-122.338;2023-10-31T10:02:00;78275.41;;;-145.45;50.48
70011;BME280;59543;37.950;-122.338;2023-10-31T10:04:27;78263.06;;;-145.45;50.99
70011;BME280;59543;37.950;-122.338;2023-10-31T10:07:01;78265.13;;;-145.45;51.54
70011;BME280;59543;37.950;-122.338;2023-10-31T10:09:28;78246.63;;;-145.45;51.14
70011;BME280;59543;37.950;-122.338;2023-10-31T10:11:56;78244.59;;;-145.45;50.78
70011;BME280;59543;37.950;-122.338;2023-10-31T10:14:26;78234.31;;;-145.45;49.97
70011;BME280;59543;37.950;-122.338;2023-10-31T10:16:54;78207.59;;;-145.45;49.52
70011;BME280;59543;37.950;-122.338;2023-10-31T10:19:22;78193.22;;;-145.45;49.03
70011;BME280;59543;37.950;-122.338;2023-10-31T10:21:53;78215.81;;;-145.45;48.48
70011;BME280;59543;37.950;-122.338;2023-10-31T10:24:20;78242.53;;;-145.45;48.69
70011;BME280;59543;37.950;-122.338;2023-10-31T10:26:48;78236.38;;;-145.45;48.50
70011;BME280;59543;37.950;-122.338;2023-10-31T10:29:15;78265.13;;;-145.45;48.02
70011;BME280;59543;37.950;-122.338;2023-10-31T10:31:42;78256.91;;;-145.45;47.82
70011;BME280;59543;37.950;-122.338;2023-10-31T10:34:09;78254.84;;;-145.45;47.64
70011;BME280;59543;37.950;-122.338;2023-10-31T10:36:35;78304.16;;;-145.45;48.36
70011;BME280;59543;37.950;-122.338;2023-10-31T10:39:02;78322.66;;;-145.45;48.79
70011;BME280;59543;37.950;-122.338;2023-10-31T10:41:29;78335.00;;;-145.45;49.04
70011;BME280;59543;37.950;-122.338;2023-10-31T10:44:03;78341.16;;;-145.45;49.70
70011;BME280;59543;37.950;-122.338;2023-10-31T10:46:33;78332.94;;;-145.45;49.53
70011;BME280;59543;37.950;-122.338;2023-10-31T10:49:05;78328.81;;;-145.45;49.60
70011;BME280;59543;37.950;-122.338;2023-10-31T10:51:43;78335.00;;;-145.45;49.60
70011;BME280;59543;37.950;-122.338;2023-10-31T10:54:34;78302.13;;;-145.45;49.27
70011;BME280;59543;37.950;-122.338;2023-10-31T10:59:48;78374.03;;;-145.45;50.52
70011;BME280;59543;37.950;-122.338;2023-10-31T11:02:19;78386.38;;;-145.45;51.06
70011;BME280;59543;37.950;-122.338;2023-10-31T11:04:47;78392.53;;;-145.45;51.06
70011;BME280;59543;37.950;-122.338;2023-10-31T11:07:14;78394.59;;;-145.45;51.31
70011;BME280;59543;37.950;-122.338;2023-10-31T11:09:41;78402.81;;;-145.45;51.04
70011;BME280;59543;37.950;-122.338;2023-10-31T11:12:10;78382.25;;;-145.45;50.89
70011;BME280;59543;37.950;-122.338;2023-10-31T11:14:37;78382.25;;;-145.45;50.79
70011;BME280;59543;37.950;-122.338;2023-10-31T11:17:11;78392.53;;;-145.45;50.69
70011;BME280;59543;37.950;-122.338;2023-10-31T11:19:41;78402.81;;;-145.45;50.72
70011;BME280;59543;37.950;-122.338;2023-10-31T11:22:07;78394.59;;;-145.45;50.76
70011;BME280;59543;37.950;-122.338;2023-10-31T11:24:39;78406.91;;;-145.45;50.84
70011;BME280;59543;37.950;-122.338;2023-10-31T11:27:07;78415.13;;;-145.45;50.96
70011;BME280;59543;37.950;-122.338;2023-10-31T11:29:34;78394.59;;;-145.45;50.75
70011;BME280;59543;37.950;-122.338;2023-10-31T11:32:01;78382.25;;;-145.45;50.73
70011;BME280;59543;37.950;-122.338;2023-10-31T11:34:29;78390.47;;;-145.45;50.69
70011;BME280;59543;37.950;-122.338;2023-10-31T11:40:22;78369.94;;;-145.45;49.84
70011;BME280;59543;37.950;-122.338;2023-10-31T11:42:53;78374.03;;;-145.45;49.87
70011;BME280;59543;37.950;-122.338;2023-10-31T11:47:55;78355.53;;;-145.45;49.39
70011;BME280;59543;37.950;-122.338;2023-10-31T11:50:21;78359.66;;;-145.45;49.33
70011;BME280;59543;37.950;-122.338;2023-10-31T11:53:07;78367.88;;;-145.45;49.47
70011;BME280;59543;37.950;-122.338;2023-10-31T11:55:40;78361.72;;;-145.45;49.33
70011;BME280;59543;37.950;-122.338;2023-10-31T11:58:20;78337.06;;;-145.45;48.88
70011;BME280;59543;37.950;-122.338;2023-10-31T12:00:49;78316.50;;;-145.45;48.83
70011;BME280;59543;37.950;-122.338;2023-10-31T12:03:20;78332.94;;;-145.45;48.82
70011;BME280;59543;37.950;-122.338;2023-10-31T12:05:58;78312.38;;;-145.45;48.58
70011;BME280;59543;37.950;-122.338;2023-10-31T12:08:29;78316.50;;;-145.45;48.35
70011;BME280;59543;37.950;-122.338;2023-10-31T12:11:13;78330.88;;;-145.45;48.71
70011;BME280;59543;37.950;-122.338;2023-10-31T12:13:52;78328.81;;;-145.45;48.56
70011;BME280;59543;37.950;-122.338;2023-10-31T12:16:19;78328.81;;;-145.45;48.45
70011;BME280;59543;37.950;-122.338;2023-10-31T12:18:54;78308.28;;;-145.45;48.44